sensor_id;sensor_type;location;lat;lon;timestamp;P1;durP1;ratioP1;P2;durP2;ratioP2
19036;SDS011;9651;49.138;8.900;2024-03-23T00:52:19;27.77;;;11.30;;
19036;SDS011;9651;49.138;8.900;2024-03-23T00:56:21;18.93;;;10.83;;
19036;SDS011;9651;49.138;8.900;2024-03-23T01:00:22;15.67;;;8.27;;
19036;SDS011;9651;49.138;8.900;2024-03-23T01:04:24;11.48;;;6.60;;
19036;SDS011;9651;49.138;8.900;2024-03-23T01:08:27;10.37;;;6.97;;
19036;SDS011;9651;49.138;8.900;2024-03-23T01:12:29;10.33;;;6.33;;
19036;SDS011;9651;49.138;8.900;2024-03-23T01:16:31;11.00;;;6.30;;
19036;SDS011;9651;49.138;8.900;2024-03-23T01:20:33;12.77;;;7.10;;
19036;SDS011;9651;49.138;8.900;2024-03-23T01:24:36;13.77;;;7.90;;
19036;SDS011;9651;49.138;8.900;2024-03-23T01:28:38;11.07;;;6.10;;
19036;SDS011;9651;49.138;8.900;2024-03-23T01:32:40;8.20;;;5.67;;
19036;SDS011;9651;49.138;8.900;2024-03-23T01:36:40;7.10;;;5.20;;
19036;SDS011;9651;49.138;8.900;2024-03-23T01:40:44;7.30;;;5.33;;
19036;SDS011;9651;49.138;8.900;2024-03-23T01:44:46;7.47;;;5.43;;
19036;SDS011;9651;49.138;8.900;2024-03-23T01:48:48;7.53;;;5.17;;
19036;SDS011;9651;49.138;8.900;2024-03-23T01:52:51;7.50;;;5.53;;
19036;SDS011;9651;49.138;8.900;2024-03-23T01:56:55;7.30;;;5.40;;
19036;SDS011;9651;49.138;8.900;2024-03-23T02:00:57;7.87;;;5.90;;
19036;SDS011;9651;49.138;8.900;2024-03-23T02:04:59;7.37;;;5.03;;
19036;SDS011;9651;49.138;8.900;2024-03-23T02:09:01;7.23;;;5.57;;
19036;SDS011;9651;49.138;8.900;2024-03-23T02:13:07;8.97;;;5.17;;
19036;SDS011;9651;49.138;8.900;2024-03-23T02:17:09;7.27;;;5.77;;
19036;SDS011;9651;49.138;8.900;2024-03-23T02:21:11;10.37;;;5.90;;
19036;SDS011;9651;49.138;8.900;2024-03-23T02:25:14;7.53;;;5.67;;
19036;SDS011;9651;49.138;8.900;2024-03-23T02:29:15;7.83;;;5.27;;
19036;SDS011;9651;49.138;8.900;2024-03-23T02:33:17;6.37;;;4.77;;
19036;SDS011;9651;49.138;8.900;2024-03-23T02:37:19;6.00;;;5.23;;
19036;SDS011;9651;49.138;8.900;2024-03-23T02:41:22;5.20;;;4.40;;
19036;SDS011;9651;49.138;8.900;2024-03-23T02:45:23;6.90;;;4.63;;
19036;SDS011;9651;49.138;8.900;2024-03-23T02:49:26;7.73;;;4.67;;
19036;SDS011;9651;49.138;8.900;2024-03-23T02:53:28;6.63;;;4.87;;
19036;SDS011;9651;49.138;8.900;2024-03-23T02:57:32;5.47;;;3.73;;
19036;SDS011;9651;49.138;8.900;2024-03-23T03:01:34;5.23;;;3.37;;
19036;SDS011;9651;49.138;8.900;2024-03-23T03:05:36;5.57;;;3.57;;
19036;SDS011;9651;49.138;8.900;2024-03-23T03:09:37;5.40;;;3.60;;
19036;SDS011;9651;49.138;8.900;2024-03-23T03:13:41;5.33;;;3.27;;
19036;SDS011;9651;49.138;8.900;2024-03-23T03:17:43;4.70;;;3.27;;
19036;SDS011;9651;49.138;8.900;2024-03-23T03:21:45;4.37;;;2.97;;
19036;SDS011;9651;49.138;8.900;2024-03-23T03:25:48;4.43;;;3.23;;
19036;SDS011;9651;49.138;8.900;2024-03-23T03:29:51;7.63;;;4.27;;
19036;SDS011;9651;49.138;8.900;2024-03-23T03:33:53;5.43;;;3.73;;
19036;SDS011;9651;49.138;8.900;2024-03-23T03:37:55;7.00;;;4.77;;
19036;SDS011;9651;49.138;8.900;2024-03-23T03:41:56;12.53;;;6.10;;
19036;SDS011;9651;49.138;8.900;2024-03-23T03:46:00;14.20;;;7.10;;
19036;SDS011;9651;49.138;8.900;2024-03-23T03:50:03;11.45;;;6.80;;
19036;SDS011;9651;49.138;8.900;2024-03-23T03:54:05;13.37;;;6.77;;
19036;SDS011;9651;49.138;8.900;2024-03-23T03:58:07;9.70;;;6.83;;
19036;SDS011;9651;49.138;8.900;2024-03-23T04:02:10;10.33;;;6.90;;
19036;SDS011;9651;49.138;8.900;2024-03-23T04:06:15;11.33;;;6.70;;
19036;SDS011;9651;49.138;8.900;2024-03-23T04:10:20;12.17;;;7.30;;
19036;SDS011;9651;49.138;8.900;2024-03-23T04:14:22;9.10;;;7.03;;
19036;SDS011;9651;49.138;8.900;2024-03-23T04:18:25;14.60;;;7.63;;
19036;SDS011;9651;49.138;8.900;2024-03-23T04:22:27;10.88;;;7.43;;
19036;SDS011;9651;49.138;8.900;2024-03-23T04:26:29;14.23;;;7.40;;
19036;SDS011;9651;49.138;8.900;2024-03-23T04:30:31;11.10;;;7.33;;
19036;SDS011;9651;49.138;8.900;2024-03-23T04:34:34;10.77;;;7.60;;
19036;SDS011;9651;49.138;8.900;2024-03-23T04:38:36;12.38;;;7.88;;
19036;SDS011;9651;49.138;8.900;2024-03-23T04:42:38;13.40;;;6.70;;
19036;SDS011;9651;49.138;8.900;2024-03-23T04:46:39;15.00;;;8.40;;
19036;SDS011;9651;49.138;8.900;2024-03-23T04:50:43;11.07;;;7.60;;
19036;SDS011;9651;49.138;8.900;2024-03-23T04:54:46;11.13;;;7.13;;
19036;SDS011;9651;49.138;8.900;2024-03-23T04:58:48;11.43;;;7.32;;
19036;SDS011;9651;49.138;8.900;2024-03-23T05:02:50;14.67;;;7.90;;
19036;SDS011;9651;49.138;8.900;2024-03-23T05:06:54;13.93;;;7.50;;
19036;SDS011;9651;49.138;8.900;2024-03-23T05:10:56;13.50;;;7.97;;
19036;SDS011;9651;49.138;8.900;2024-03-23T05:14:58;12.87;;;7.03;;
19036;SDS011;9651;49.138;8.900;2024-03-23T05:19:00;10.52;;;6.07;;
19036;SDS011;9651;49.138;8.900;2024-03-23T05:23:03;10.45;;;6.72;;
19036;SDS011;9651;49.138;8.900;2024-03-23T05:27:05;8.60;;;5.70;;
19036;SDS011;9651;49.138;8.900;2024-03-23T05:31:07;9.37;;;5.90;;
19036;SDS011;9651;49.138;8.900;2024-03-23T05:35:10;6.40;;;4.03;;
19036;SDS011;9651;49.138;8.900;2024-03-23T05:39:13;4.90;;;3.97;;
19036;SDS011;9651;49.138;8.900;2024-03-23T05:43:16;5.70;;;3.57;;
19036;SDS011;9651;49.138;8.900;2024-03-23T05:47:18;4.67;;;3.20;;
19036;SDS011;9651;49.138;8.900;2024-03-23T05:51:20;4.47;;;2.83;;
19036;SDS011;9651;49.138;8.900;2024-03-23T05:55:23;4.27;;;2.13;;
19036;SDS011;9651;49.138;8.900;2024-03-23T05:59:25;3.27;;;1.80;;
19036;SDS011;9651;49.138;8.900;2024-03-23T06:03:27;2.13;;;1.50;;
19036;SDS011;9651;49.138;8.900;2024-03-23T06:07:30;2.67;;;1.50;;
19036;SDS011;9651;49.138;8.900;2024-03-23T06:11:33;3.33;;;1.60;;
19036;SDS011;9651;49.138;8.900;2024-03-23T06:15:35;2.20;;;1.37;;
19036;SDS011;9651;49.138;8.900;2024-03-23T06:19:37;2.13;;;1.47;;
19036;SDS011;9651;49.138;8.900;2024-03-23T06:23:40;2.90;;;1.60;;
19036;SDS011;9651;49.138;8.900;2024-03-23T06:27:43;2.07;;;1.30;;
19036;SDS011;9651;49.138;8.900;2024-03-23T06:31:44;2.30;;;1.70;;
19036;SDS011;9651;49.138;8.900;2024-03-23T06:35:54;1.50;;;1.23;;
19036;SDS011;9651;49.138;8.900;2024-03-23T06:39:56;1.70;;;1.40;;
19036;SDS011;9651;49.138;8.900;2024-03-23T06:43:59;4.63;;;1.40;;
19036;SDS011;9651;49.138;8.900;2024-03-23T06:48:01;1.47;;;1.33;;
19036;SDS011;9651;49.138;8.900;2024-03-23T06:52:04;3.53;;;2.27;;
19036;SDS011;9651;49.138;8.900;2024-03-23T06:56:06;2.40;;;1.60;;
19036;SDS011;9651;49.138;8.900;2024-03-23T07:00:09;1.13;;;0.93;;
19036;SDS011;9651;49.138;8.900;2024-03-23T07:04:13;1.53;;;1.30;;
19036;SDS011;9651;49.138;8.900;2024-03-23T07:08:15;1.27;;;0.90;;
19036;SDS011;9651;49.138;8.900;2024-03-23T07:12:21;3.13;;;2.03;;
19036;SDS011;9651;49.138;8.900;2024-03-23T07:16:24;2.23;;;1.47;;
19036;SDS011;9651;49.138;8.900;2024-03-23T07:20:28;1.73;;;1.30;;
19036;SDS011;9651;49.138;8.900;2024-03-23T07:24:31;1.07;;;0.93;;
19036;SDS011;9651;49.138;8.900;2024-03-23T07:28:33;1.73;;;1.10;;
19036;SDS011;9651;49.138;8.900;2024-03-23T07:32:37;2.30;;;0.77;;
19036;SDS011;9651;49.138;8.900;2024-03-23T07:36:39;0.50;;;0.50;;
19036;SDS011;9651;49.138;8.900;2024-03-23T07:40:41;0.43;;;0.43;;
19036;SDS011;9651;49.138;8.900;2024-03-23T07:44:43;1.13;;;0.80;;
19036;SDS011;9651;49.138;8.900;2024-03-23T07:48:48;0.63;;;0.53;;
19036;SDS011;9651;49.138;8.900;2024-03-23T07:52:50;0.60;;;0.30;;
19036;SDS011;9651;49.138;8.900;2024-03-23T07:56:51;1.27;;;0.43;;
19036;SDS011;9651;49.138;8.900;2024-03-23T08:00:53;1.00;;;0.80;;
19036;SDS011;9651;49.138;8.900;2024-03-23T08:04:57;0.30;;;0.30;;
19036;SDS011;9651;49.138;8.900;2024-03-23T08:08:59;1.43;;;0.90;;
19036;SDS011;9651;49.138;8.900;2024-03-23T08:13:01;2.80;;;0.60;;
19036;SDS011;9651;49.138;8.900;2024-03-23T08:17:03;1.43;;;0.80;;
19036;SDS011;9651;49.138;8.900;2024-03-23T08:21:06;1.97;;;0.70;;
19036;SDS011;9651;49.138;8.900;2024-03-23T08:25:08;2.37;;;0.87;;
19036;SDS011;9651;49.138;8.900;2024-03-23T08:29:10;0.70;;;0.60;;
19036;SDS011;9651;49.138;8.900;2024-03-23T08:33:12;4.10;;;1.10;;
19036;SDS011;9651;49.138;8.900;2024-03-23T08:37:15;3.73;;;0.70;;
19036;SDS011;9651;49.138;8.900;2024-03-23T08:41:17;2.10;;;1.40;;
19036;SDS011;9651;49.138;8.900;2024-03-23T08:45:18;1.77;;;1.20;;
19036;SDS011;9651;49.138;8.900;2024-03-23T08:49:20;2.33;;;1.20;;
19036;SDS011;9651;49.138;8.900;2024-03-23T08:53:23;2.57;;;1.00;;
19036;SDS011;9651;49.138;8.900;2024-03-23T08:57:25;3.60;;;1.55;;
19036;SDS011;9651;49.138;8.900;2024-03-23T09:01:27;4.63;;;1.08;;
19036;SDS011;9651;49.138;8.900;2024-03-23T09:05:29;3.83;;;1.38;;
19036;SDS011;9651;49.138;8.900;2024-03-23T09:09:38;2.85;;;1.10;;
19036;SDS011;9651;49.138;8.900;2024-03-23T09:13:40;6.18;;;1.67;;
19036;SDS011;9651;49.138;8.900;2024-03-23T09:17:42;3.00;;;1.52;;
19036;SDS011;9651;49.138;8.900;2024-03-23T09:21:44;8.70;;;1.63;;
19036;SDS011;9651;49.138;8.900;2024-03-23T09:25:47;4.95;;;1.80;;
19036;SDS011;9651;49.138;8.900;2024-03-23T09:29:49;4.45;;;1.65;;
19036;SDS011;9651;49.138;8.900;2024-03-23T09:33:51;3.35;;;1.63;;
19036;SDS011;9651;49.138;8.900;2024-03-23T09:37:53;5.13;;;1.85;;
19036;SDS011;9651;49.138;8.900;2024-03-23T09:41:57;5.18;;;2.67;;
19036;SDS011;9651;49.138;8.900;2024-03-23T09:45:59;8.15;;;3.25;;
19036;SDS011;9651;49.138;8.900;2024-03-23T09:50:02;4.07;;;1.77;;
19036;SDS011;9651;49.138;8.900;2024-03-23T09:54:06;6.10;;;2.08;;
19036;SDS011;9651;49.138;8.900;2024-03-23T09:58:11;3.72;;;1.92;;
19036;SDS011;9651;49.138;8.900;2024-03-23T10:02:15;4.93;;;1.98;;
19036;SDS011;9651;49.138;8.900;2024-03-23T10:06:21;4.77;;;2.20;;
19036;SDS011;9651;49.138;8.900;2024-03-23T10:10:25;6.35;;;2.72;;
19036;SDS011;9651;49.138;8.900;2024-03-23T10:14:29;10.07;;;4.07;;
19036;SDS011;9651;49.138;8.900;2024-03-23T10:18:31;6.90;;;2.97;;
19036;SDS011;9651;49.138;8.900;2024-03-23T10:22:38;7.53;;;3.57;;
19036;SDS011;9651;49.138;8.900;2024-03-23T10:26:40;5.28;;;3.13;;
19036;SDS011;9651;49.138;8.900;2024-03-23T10:30:43;6.30;;;2.43;;
19036;SDS011;9651;49.138;8.900;2024-03-23T10:34:45;4.80;;;2.97;;
19036;SDS011;9651;49.138;8.900;2024-03-23T10:38:47;7.70;;;3.77;;
19036;SDS011;9651;49.138;8.900;2024-03-23T10:42:50;6.97;;;2.87;;
19036;SDS011;9651;49.138;8.900;2024-03-23T10:46:58;8.30;;;2.83;;
19036;SDS011;9651;49.138;8.900;2024-03-23T10:51:01;7.97;;;3.07;;
19036;SDS011;9651;49.138;8.900;2024-03-23T10:55:04;10.17;;;3.00;;
19036;SDS011;9651;49.138;8.900;2024-03-23T10:59:09;9.93;;;2.40;;
19036;SDS011;9651;49.138;8.900;2024-03-23T11:03:31;9.70;;;2.60;;
19036;SDS011;9651;49.138;8.900;2024-03-23T11:07:37;7.47;;;2.47;;
19036;SDS011;9651;49.138;8.900;2024-03-23T11:11:39;7.07;;;2.43;;
19036;SDS011;9651;49.138;8.900;2024-03-23T11:15:41;5.43;;;2.37;;
19036;SDS011;9651;49.138;8.900;2024-03-23T11:19:44;5.40;;;2.57;;
19036;SDS011;9651;49.138;8.900;2024-03-23T11:23:54;5.80;;;2.20;;
19036;SDS011;9651;49.138;8.900;2024-03-23T11:27:56;10.82;;;2.70;;
19036;SDS011;9651;49.138;8.900;2024-03-23T11:31:59;6.78;;;2.20;;
19036;SDS011;9651;49.138;8.900;2024-03-23T11:36:05;8.13;;;2.75;;
19036;SDS011;9651;49.138;8.900;2024-03-23T11:40:17;4.45;;;1.83;;
19036;SDS011;9651;49.138;8.900;2024-03-23T11:44:20;4.65;;;2.30;;
19036;SDS011;9651;49.138;8.900;2024-03-23T11:48:23;5.63;;;2.13;;
19036;SDS011;9651;49.138;8.900;2024-03-23T11:52:28;4.65;;;1.65;;
19036;SDS011;9651;49.138;8.900;2024-03-23T11:56:31;7.07;;;2.38;;
19036;SDS011;9651;49.138;8.900;2024-03-23T12:00:33;7.10;;;2.15;;
19036;SDS011;9651;49.138;8.900;2024-03-23T12:04:36;6.07;;;1.50;;
19036;SDS011;9651;49.138;8.900;2024-03-23T12:08:41;4.65;;;1.48;;
19036;SDS011;9651;49.138;8.900;2024-03-23T12:12:43;5.18;;;1.77;;
19036;SDS011;9651;49.138;8.900;2024-03-23T12:16:44;10.02;;;2.30;;
19036;SDS011;9651;49.138;8.900;2024-03-23T12:20:45;4.25;;;1.35;;
19036;SDS011;9651;49.138;8.900;2024-03-23T12:24:49;4.65;;;1.38;;
19036;SDS011;9651;49.138;8.900;2024-03-23T12:28:51;4.03;;;1.52;;
19036;SDS011;9651;49.138;8.900;2024-03-23T12:32:52;4.07;;;1.00;;
19036;SDS011;9651;49.138;8.900;2024-03-23T12:36:54;3.10;;;1.40;;
19036;SDS011;9651;49.138;8.900;2024-03-23T12:40:58;3.10;;;1.63;;
19036;SDS011;9651;49.138;8.900;2024-03-23T12:45:00;4.38;;;2.03;;
19036;SDS011;9651;49.138;8.900;2024-03-23T12:49:03;6.60;;;2.47;;
19036;SDS011;9651;49.138;8.900;2024-03-23T12:53:05;4.88;;;1.50;;
19036;SDS011;9651;49.138;8.900;2024-03-23T12:57:08;3.75;;;1.70;;
19036;SDS011;9651;49.138;8.900;2024-03-23T13:01:10;3.03;;;1.20;;
19036;SDS011;9651;49.138;8.900;2024-03-23T13:05:12;3.72;;;2.45;;
19036;SDS011;9651;49.138;8.900;2024-03-23T13:09:14;5.45;;;2.00;;
19036;SDS011;9651;49.138;8.900;2024-03-23T13:13:16;5.63;;;2.00;;
19036;SDS011;9651;49.138;8.900;2024-03-23T13:17:18;2.85;;;1.13;;
19036;SDS011;9651;49.138;8.900;2024-03-23T13:21:20;3.03;;;1.20;;
19036;SDS011;9651;49.138;8.900;2024-03-23T13:25:22;3.15;;;1.02;;
19036;SDS011;9651;49.138;8.900;2024-03-23T13:29:25;4.97;;;1.02;;
19036;SDS011;9651;49.138;8.900;2024-03-23T13:33:27;5.53;;;1.30;;
19036;SDS011;9651;49.138;8.900;2024-03-23T13:37:29;2.80;;;1.07;;
19036;SDS011;9651;49.138;8.900;2024-03-23T13:41:31;2.30;;;0.80;;
19036;SDS011;9651;49.138;8.900;2024-03-23T13:45:34;2.10;;;0.80;;
19036;SDS011;9651;49.138;8.900;2024-03-23T13:49:37;6.90;;;1.27;;
19036;SDS011;9651;49.138;8.900;2024-03-23T13:53:40;3.80;;;0.70;;
19036;SDS011;9651;49.138;8.900;2024-03-23T13:57:42;1.07;;;0.60;;
19036;SDS011;9651;49.138;8.900;2024-03-23T14:01:45;4.27;;;0.90;;
19036;SDS011;9651;49.138;8.900;2024-03-23T14:05:47;2.73;;;0.60;;
19036;SDS011;9651;49.138;8.900;2024-03-23T14:09:49;1.13;;;0.80;;
19036;SDS011;9651;49.138;8.900;2024-03-23T14:13:55;1.63;;;1.00;;
19036;SDS011;9651;49.138;8.900;2024-03-23T14:17:58;2.50;;;0.50;;
19036;SDS011;9651;49.138;8.900;2024-03-23T14:22:00;0.90;;;0.50;;
19036;SDS011;9651;49.138;8.900;2024-03-23T14:26:02;1.07;;;0.60;;
19036;SDS011;9651;49.138;8.900;2024-03-23T14:30:05;1.40;;;0.50;;
19036;SDS011;9651;49.138;8.900;2024-03-23T14:34:10;3.87;;;1.43;;
19036;SDS011;9651;49.138;8.900;2024-03-23T14:38:11;2.80;;;0.80;;
19036;SDS011;9651;49.138;8.900;2024-03-23T14:42:13;4.47;;;1.30;;
19036;SDS011;9651;49.138;8.900;2024-03-23T14:46:16;1.33;;;0.70;;
19036;SDS011;9651;49.138;8.900;2024-03-23T14:50:19;1.20;;;0.50;;
19036;SDS011;9651;49.138;8.900;2024-03-23T14:54:21;1.10;;;0.80;;
19036;SDS011;9651;49.138;8.900;2024-03-23T14:58:24;1.00;;;0.57;;
19036;SDS011;9651;49.138;8.900;2024-03-23T15:02:26;0.77;;;0.70;;
19036;SDS011;9651;49.138;8.900;2024-03-23T15:06:31;3.90;;;1.03;;
19036;SDS011;9651;49.138;8.900;2024-03-23T15:10:34;2.57;;;0.60;;
19036;SDS011;9651;49.138;8.900;2024-03-23T15:14:36;2.73;;;0.60;;
19036;SDS011;9651;49.138;8.900;2024-03-23T15:18:37;2.63;;;0.67;;
19036;SDS011;9651;49.138;8.900;2024-03-23T15:22:40;2.60;;;0.90;;
19036;SDS011;9651;49.138;8.900;2024-03-23T15:26:43;1.13;;;0.70;;
19036;SDS011;9651;49.138;8.900;2024-03-23T15:30:44;1.63;;;0.57;;
19036;SDS011;9651;49.138;8.900;2024-03-23T15:34:46;3.63;;;1.10;;
19036;SDS011;9651;49.138;8.900;2024-03-23T15:38:50;2.97;;;1.13;;
19036;SDS011;9651;49.138;8.900;2024-03-23T15:42:51;1.97;;;1.50;;
19036;SDS011;9651;49.138;8.900;2024-03-23T15:46:53;6.93;;;1.10;;
19036;SDS011;9651;49.138;8.900;2024-03-23T15:50:55;4.17;;;2.23;;
19036;SDS011;9651;49.138;8.900;2024-03-23T15:54:59;1.60;;;0.90;;
19036;SDS011;9651;49.138;8.900;2024-03-23T15:59:02;2.40;;;1.20;;
19036;SDS011;9651;49.138;8.900;2024-03-23T16:03:06;1.77;;;0.80;;
19036;SDS011;9651;49.138;8.900;2024-03-23T16:07:08;3.33;;;0.80;;
19036;SDS011;9651;49.138;8.900;2024-03-23T16:11:11;1.77;;;0.70;;
19036;SDS011;9651;49.138;8.900;2024-03-23T16:15:13;4.60;;;1.20;;
19036;SDS011;9651;49.138;8.900;2024-03-23T16:19:15;4.20;;;1.67;;
19036;SDS011;9651;49.138;8.900;2024-03-23T16:23:17;3.47;;;0.93;;
19036;SDS011;9651;49.138;8.900;2024-03-23T16:27:20;2.30;;;0.70;;
19036;SDS011;9651;49.138;8.900;2024-03-23T16:31:22;3.17;;;0.50;;
19036;SDS011;9651;49.138;8.900;2024-03-23T16:35:24;2.63;;;1.20;;
19036;SDS011;9651;49.138;8.900;2024-03-23T16:39:25;2.20;;;0.70;;
19036;SDS011;9651;49.138;8.900;2024-03-23T16:43:29;3.97;;;1.00;;
19036;SDS011;9651;49.138;8.900;2024-03-23T16:47:30;4.77;;;1.50;;
19036;SDS011;9651;49.138;8.900;2024-03-23T16:51:34;6.17;;;1.20;;
19036;SDS011;9651;49.138;8.900;2024-03-23T16:55:35;0.97;;;0.87;;
19036;SDS011;9651;49.138;8.900;2024-03-23T16:59:39;2.50;;;1.47;;
19036;SDS011;9651;49.138;8.900;2024-03-23T17:03:40;1.23;;;1.00;;
19036;SDS011;9651;49.138;8.900;2024-03-23T17:07:42;2.50;;;1.10;;
19036;SDS011;9651;49.138;8.900;2024-03-23T17:11:44;1.03;;;0.73;;
19036;SDS011;9651;49.138;8.900;2024-03-23T17:15:48;1.73;;;0.77;;
19036;SDS011;9651;49.138;8.900;2024-03-23T17:19:49;1.57;;;1.47;;
19036;SDS011;9651;49.138;8.900;2024-03-23T17:23:51;1.00;;;0.90;;
19036;SDS011;9651;49.138;8.900;2024-03-23T17:27:53;2.73;;;1.10;;
19036;SDS011;9651;49.138;8.900;2024-03-23T17:32:02;1.70;;;1.40;;
19036;SDS011;9651;49.138;8.900;2024-03-23T17:36:05;1.77;;;1.20;;
19036;SDS011;9651;49.138;8.900;2024-03-23T17:40:07;2.57;;;1.40;;
19036;SDS011;9651;49.138;8.900;2024-03-23T17:44:10;3.40;;;1.30;;
19036;SDS011;9651;49.138;8.900;2024-03-23T17:48:13;3.47;;;1.30;;
19036;SDS011;9651;49.138;8.900;2024-03-23T17:52:15;2.80;;;1.17;;
19036;SDS011;9651;49.138;8.900;2024-03-23T17:56:17;4.43;;;1.90;;
19036;SDS011;9651;49.138;8.900;2024-03-23T18:00:19;3.17;;;1.33;;
19036;SDS011;9651;49.138;8.900;2024-03-23T18:04:23;2.30;;;1.30;;
19036;SDS011;9651;49.138;8.900;2024-03-23T18:08:24;5.83;;;1.90;;
19036;SDS011;9651;49.138;8.900;2024-03-23T18:12:26;2.30;;;1.10;;
19036;SDS011;9651;49.138;8.900;2024-03-23T18:16:28;6.60;;;1.90;;
19036;SDS011;9651;49.138;8.900;2024-03-23T18:20:30;3.47;;;1.40;;
19036;SDS011;9651;49.138;8.900;2024-03-23T18:24:32;1.77;;;0.90;;
19036;SDS011;9651;49.138;8.900;2024-03-23T18:28:34;2.20;;;1.37;;
19036;SDS011;9651;49.138;8.900;2024-03-23T18:32:36;3.30;;;1.20;;
19036;SDS011;9651;49.138;8.900;2024-03-23T18:36:39;3.00;;;1.47;;
19036;SDS011;9651;49.138;8.900;2024-03-23T18:40:43;1.37;;;1.17;;
19036;SDS011;9651;49.138;8.900;2024-03-23T18:44:45;2.93;;;1.10;;
19036;SDS011;9651;49.138;8.900;2024-03-23T18:48:47;1.33;;;1.23;;
19036;SDS011;9651;49.138;8.900;2024-03-23T18:52:51;5.67;;;1.53;;
19036;SDS011;9651;49.138;8.900;2024-03-23T18:56:53;1.63;;;1.00;;
19036;SDS011;9651;49.138;8.900;2024-03-23T19:00:55;2.40;;;1.37;;
19036;SDS011;9651;49.138;8.900;2024-03-23T19:04:57;2.67;;;1.00;;
19036;SDS011;9651;49.138;8.900;2024-03-23T19:09:00;1.13;;;1.00;;
19036;SDS011;9651;49.138;8.900;2024-03-23T19:13:02;2.70;;;1.20;;
19036;SDS011;9651;49.138;8.900;2024-03-23T19:17:04;2.60;;;1.10;;
19036;SDS011;9651;49.138;8.900;2024-03-23T19:21:06;2.93;;;1.40;;
19036;SDS011;9651;49.138;8.900;2024-03-23T19:25:09;2.97;;;1.17;;
19036;SDS011;9651;49.138;8.900;2024-03-23T19:29:11;2.83;;;1.33;;
19036;SDS011;9651;49.138;8.900;2024-03-23T19:33:13;1.37;;;0.93;;
19036;SDS011;9651;49.138;8.900;2024-03-23T19:37:15;3.60;;;1.40;;
19036;SDS011;9651;49.138;8.900;2024-03-23T19:41:19;8.57;;;1.23;;
19036;SDS011;9651;49.138;8.900;2024-03-23T19:45:21;1.73;;;1.13;;
19036;SDS011;9651;49.138;8.900;2024-03-23T19:49:22;3.53;;;1.20;;
19036;SDS011;9651;49.138;8.900;2024-03-23T19:53:25;3.87;;;1.40;;
19036;SDS011;9651;49.138;8.900;2024-03-23T19:57:28;2.40;;;1.20;;
19036;SDS011;9651;49.138;8.900;2024-03-23T20:01:30;3.00;;;0.90;;
19036;SDS011;9651;49.138;8.900;2024-03-23T20:05:32;6.33;;;1.33;;
19036;SDS011;9651;49.138;8.900;2024-03-23T20:09:34;2.63;;;1.10;;
19036;SDS011;9651;49.138;8.900;2024-03-23T20:13:37;2.00;;;1.10;;
19036;SDS011;9651;49.138;8.900;2024-03-23T20:17:39;2.83;;;0.90;;
19036;SDS011;9651;49.138;8.900;2024-03-23T20:21:41;1.27;;;0.93;;
19036;SDS011;9651;49.138;8.900;2024-03-23T20:25:49;2.10;;;1.10;;
19036;SDS011;9651;49.138;8.900;2024-03-23T20:29:53;1.80;;;1.17;;
19036;SDS011;9651;49.138;8.900;2024-03-23T20:33:55;2.37;;;0.90;;
19036;SDS011;9651;49.138;8.900;2024-03-23T20:37:57;3.90;;;1.80;;
19036;SDS011;9651;49.138;8.900;2024-03-23T20:41:59;3.93;;;1.63;;
19036;SDS011;9651;49.138;8.900;2024-03-23T20:46:02;3.47;;;1.80;;
19036;SDS011;9651;49.138;8.900;2024-03-23T20:50:05;3.73;;;1.10;;
19036;SDS011;9651;49.138;8.900;2024-03-23T20:54:08;4.23;;;2.60;;
19036;SDS011;9651;49.138;8.900;2024-03-23T20:58:13;4.47;;;2.70;;
19036;SDS011;9651;49.138;8.900;2024-03-23T21:02:16;2.60;;;2.20;;
19036;SDS011;9651;49.138;8.900;2024-03-23T21:06:19;4.00;;;1.90;;
19036;SDS011;9651;49.138;8.900;2024-03-23T21:10:21;1.23;;;0.80;;
19036;SDS011;9651;49.138;8.900;2024-03-23T21:14:25;1.87;;;0.90;;
19036;SDS011;9651;49.138;8.900;2024-03-23T21:18:28;1.63;;;0.70;;
19036;SDS011;9651;49.138;8.900;2024-03-23T21:22:30;1.97;;;0.80;;
19036;SDS011;9651;49.138;8.900;2024-03-23T21:26:32;2.50;;;0.90;;
19036;SDS011;9651;49.138;8.900;2024-03-23T21:30:35;2.97;;;1.00;;
19036;SDS011;9651;49.138;8.900;2024-03-23T21:34:38;3.30;;;0.70;;
19036;SDS011;9651;49.138;8.900;2024-03-23T21:38:42;2.10;;;1.03;;
19036;SDS011;9651;49.138;8.900;2024-03-23T21:42:44;2.50;;;0.83;;
19036;SDS011;9651;49.138;8.900;2024-03-23T21:46:46;3.90;;;1.47;;
19036;SDS011;9651;49.138;8.900;2024-03-23T21:50:49;2.33;;;0.80;;
19036;SDS011;9651;49.138;8.900;2024-03-23T21:54:52;1.43;;;0.80;;
19036;SDS011;9651;49.138;8.900;2024-03-23T21:58:53;2.53;;;1.07;;
19036;SDS011;9651;49.138;8.900;2024-03-23T22:02:55;2.33;;;1.20;;
19036;SDS011;9651;49.138;8.900;2024-03-23T22:06:58;1.17;;;0.93;;
19036;SDS011;9651;49.138;8.900;2024-03-23T22:11:00;2.60;;;0.73;;
19036;SDS011;9651;49.138;8.900;2024-03-23T22:15:03;1.33;;;0.80;;
19036;SDS011;9651;49.138;8.900;2024-03-23T22:19:05;1.27;;;0.90;;
19036;SDS011;9651;49.138;8.900;2024-03-23T22:23:09;1.23;;;0.80;;
19036;SDS011;9651;49.138;8.900;2024-03-23T22:27:11;1.57;;;1.13;;
19036;SDS011;9651;49.138;8.900;2024-03-23T22:31:13;1.60;;;0.90;;
19036;SDS011;9651;49.138;8.900;2024-03-23T22:35:15;3.40;;;1.13;;
19036;SDS011;9651;49.138;8.900;2024-03-23T22:39:19;2.37;;;1.37;;
19036;SDS011;9651;49.138;8.900;2024-03-23T22:43:21;3.23;;;1.30;;
19036;SDS011;9651;49.138;8.900;2024-03-23T22:47:23;3.70;;;2.07;;
19036;SDS011;9651;49.138;8.900;2024-03-23T22:51:25;3.30;;;1.57;;
19036;SDS011;9651;49.138;8.900;2024-03-23T22:55:28;4.13;;;1.80;;
19036;SDS011;9651;49.138;8.900;2024-03-23T22:59:30;2.47;;;1.40;;
19036;SDS011;9651;49.138;8.900;2024-03-23T23:03:32;3.27;;;1.20;;
19036;SDS011;9651;49.138;8.900;2024-03-23T23:07:35;3.37;;;1.80;;
19036;SDS011;9651;49.138;8.900;2024-03-23T23:11:38;2.57;;;1.00;;
19036;SDS011;9651;49.138;8.900;2024-03-23T23:15:41;2.80;;;1.40;;
19036;SDS011;9651;49.138;8.900;2024-03-23T23:19:44;2.03;;;1.27;;
19036;SDS011;9651;49.138;8.900;2024-03-23T23:23:45;1.73;;;1.00;;
19036;SDS011;9651;49.138;8.900;2024-03-23T23:27:49;1.80;;;1.20;;
19036;SDS011;9651;49.138;8.900;2024-03-23T23:31:51;4.37;;;1.10;;
19036;SDS011;9651;49.138;8.900;2024-03-23T23:35:53;4.60;;;1.20;;
19036;SDS011;9651;49.138;8.900;2024-03-23T23:39:55;3.03;;;0.90;;
19036;SDS011;9651;49.138;8.900;2024-03-23T23:43:58;5.17;;;1.00;;
19036;SDS011;9651;49.138;8.900;2024-03-23T23:48:02;3.47;;;1.00;;
19036;SDS011;9651;49.138;8.900;2024-03-23T23:52:05;3.27;;;1.40;;
19036;SDS011;9651;49.138;8.900;2024-03-23T23:56:06;2.60;;;1.13;;
